Time;durP1;ratioP1;P1;durP2;ratioP2;P2;SDS_P1;SDS_P2;PMS_P1;PMS_P2;Temp;Humidity;BMP_temperature;BMP_pressure;BME280_temperature;BME280_humidity;BME280_pressure;Samples;Min_cycle;Max_cycle;Signal;HPM_P1;HPM_P2
2023/05/22 00:00:36;;;;;;;26.63;20.60;;;18.90;99.90;;;;;;5006059;28;20038;-87
2023/05/22 00:03:03;;;;;;;24.50;17.70;;;18.90;99.90;;;;;;4984337;28;20362;-88
2023/05/22 00:05:29;;;;;;;23.50;19.17;;;18.90;99.90;;;;;;4987074;28;20049;-87
2023/05/22 00:07:56;;;;;;;24.25;18.27;;;18.90;99.90;;;;;;4973681;28;20149;-87
2023/05/22 00:10:22;;;;;;;23.27;18.05;;;18.90;99.90;;;;;;5015230;28;20075;-87
2023/05/22 00:12:47;;;;;;;19.85;15.48;;;18.80;99.90;;;;;;4965815;28;20083;-87
2023/05/22 00:15:13;;;;;;;22.70;16.92;;;18.70;99.90;;;;;;5014866;28;20092;-85
2023/05/22 00:17:39;;;;;;;21.88;17.15;;;18.70;99.90;;;;;;4975766;28;20477;-85
2023/05/22 00:20:09;;;;;;;20.55;16.60;;;18.70;99.90;;;;;;4981365;28;20122;-87
2023/05/22 00:22:36;;;;;;;21.35;17.55;;;18.70;99.90;;;;;;4988244;28;20389;-87
2023/05/22 00:25:06;;;;;;;18.88;15.35;;;18.70;99.90;;;;;;4982159;28;20052;-88
2023/05/22 00:27:32;;;;;;;16.25;13.70;;;18.60;99.90;;;;;;4982850;28;20037;-87
2023/05/22 00:29:58;;;;;;;21.33;15.57;;;18.60;99.90;;;;;;4981056;28;20087;-87
2023/05/22 00:32:27;;;;;;;16.63;14.60;;;18.60;99.90;;;;;;4982448;28;20042;-87
2023/05/22 00:34:52;;;;;;;18.80;14.73;;;18.50;99.90;;;;;;4989623;28;20076;-86
2023/05/22 00:37:19;;;;;;;18.15;14.40;;;18.50;99.90;;;;;;4987280;28;20034;-86
2023/05/22 00:39:45;;;;;;;18.20;14.45;;;18.50;99.90;;;;;;5023679;28;20046;-85
2023/05/22 00:42:11;;;;;;;17.25;14.60;;;18.40;99.90;;;;;;4984215;28;20034;-86
2023/05/22 00:44:37;;;;;;;19.85;14.65;;;18.40;99.90;;;;;;4975631;28;20073;-87
2023/05/22 00:47:03;;;;;;;19.73;14.50;;;18.40;99.90;;;;;;4998689;28;20389;-87
2023/05/22 00:49:29;;;;;;;19.48;16.30;;;18.40;99.90;;;;;;5015775;28;20037;-87
2023/05/22 00:51:55;;;;;;;21.63;16.98;;;18.30;99.90;;;;;;4966320;28;20045;-86
2023/05/22 00:54:21;;;;;;;21.60;16.55;;;18.30;99.90;;;;;;5015324;28;20033;-86
2023/05/22 00:56:47;;;;;;;22.98;17.92;;;18.20;99.90;;;;;;5015930;28;20052;-87
2023/05/22 00:59:13;;;;;;;25.25;19.73;;;18.20;99.90;;;;;;4995788;28;20033;-87
2023/05/22 01:01:41;;;;;;;24.15;19.27;;;18.20;99.90;;;;;;4998297;28;20029;-86
2023/05/22 01:04:10;;;;;;;24.55;19.50;;;18.20;99.90;;;;;;4999707;28;20439;-87
2023/05/22 01:06:36;;;;;;;22.90;19.80;;;18.10;99.90;;;;;;4983739;28;20052;-87
2023/05/22 01:09:03;;;;;;;25.23;20.00;;;18.20;99.90;;;;;;4997130;28;20056;-86
2023/05/22 01:11:36;;;;;;;24.30;17.95;;;18.10;99.90;;;;;;4998398;28;20116;-86
2023/05/22 01:14:11;;;;;;;24.73;18.92;;;18.10;99.90;;;;;;4997221;28;20135;-87
2023/05/22 01:16:53;;;;;;;22.98;19.30;;;18.10;99.90;;;;;;4998489;28;20049;-86
2023/05/22 01:20:04;;;;;;;23.90;18.50;;;18.00;99.90;;;;;;4994314;28;20045;-86
2023/05/22 01:22:57;;;;;;;25.63;20.45;;;18.00;99.90;;;;;;5011582;28;20501;-87
2023/05/22 01:25:34;;;;;;;24.73;20.48;;;17.90;99.90;;;;;;5011455;28;20105;-86
2023/05/22 01:28:38;;;;;;;23.58;18.25;;;17.90;99.90;;;;;;4998226;28;20037;-86
2023/05/22 01:31:08;;;;;;;29.95;21.27;;;17.90;99.90;;;;;;5001928;28;20124;-86
2023/05/22 01:33:42;;;;;;;25.17;20.60;;;17.90;99.90;;;;;;5007634;28;20046;-86
2023/05/22 01:36:10;;;;;;;24.58;20.30;;;17.90;99.90;;;;;;5009335;28;20102;-85
2023/05/22 01:38:36;;;;;;;24.65;20.67;;;17.90;99.90;;;;;;5033537;28;20063;-86
2023/05/22 01:41:02;;;;;;;34.20;22.60;;;17.90;99.90;;;;;;5002065;28;20444;-86
2023/05/22 01:43:28;;;;;;;27.90;22.05;;;17.90;99.90;;;;;;5016633;28;20089;-86
2023/05/22 01:45:54;;;;;;;27.65;22.33;;;17.90;99.90;;;;;;5033676;28;20033;-86
2023/05/22 01:48:19;;;;;;;26.25;21.40;;;17.90;99.90;;;;;;5017656;28;20036;-87
2023/05/22 01:50:49;;;;;;;30.30;22.40;;;17.80;99.90;;;;;;4989175;28;20037;-85
2023/05/22 01:53:37;;;;;;;29.02;21.50;;;17.80;99.90;;;;;;5018773;28;20473;-85
2023/05/22 01:56:33;;;;;;;30.75;22.85;;;17.80;99.90;;;;;;5030226;28;20041;-88
2023/05/22 01:59:02;;;;;;;25.50;20.10;;;17.70;99.90;;;;;;5012730;28;20057;-85
2023/05/22 02:01:31;;;;;;;29.73;23.83;;;17.70;99.90;;;;;;5032774;28;20404;-85
2023/05/22 02:03:57;;;;;;;28.42;23.58;;;17.70;99.90;;;;;;5013466;28;20086;-86
2023/05/22 02:06:28;;;;;;;30.02;24.48;;;17.70;99.90;;;;;;5018035;28;20044;-86
2023/05/22 02:08:54;;;;;;;29.10;23.38;;;17.70;99.90;;;;;;5033035;28;20040;-87
2023/05/22 02:11:23;;;;;;;27.67;22.63;;;17.70;99.90;;;;;;5001664;28;20401;-86
2023/05/22 02:13:49;;;;;;;28.30;22.73;;;17.70;99.90;;;;;;5032290;28;20491;-86
2023/05/22 02:16:16;;;;;;;30.25;23.30;;;17.70;99.90;;;;;;5034743;28;20045;-85
2023/05/22 02:18:43;;;;;;;28.00;22.70;;;17.70;99.90;;;;;;4998435;28;20413;-86
2023/05/22 02:21:08;;;;;;;33.53;24.67;;;17.70;99.90;;;;;;5001175;28;20040;-86
2023/05/22 02:23:34;;;;;;;27.60;23.40;;;17.70;99.90;;;;;;4998469;28;20041;-85
2023/05/22 02:26:00;;;;;;;29.35;23.85;;;17.70;99.90;;;;;;5041426;28;20076;-86
2023/05/22 02:28:26;;;;;;;29.88;23.27;;;17.60;99.90;;;;;;5017387;28;20037;-86
2023/05/22 02:30:52;;;;;;;29.05;23.73;;;17.60;99.90;;;;;;5034398;28;20041;-87
2023/05/22 02:33:17;;;;;;;30.38;23.73;;;17.70;99.90;;;;;;4988018;28;20033;-86
2023/05/22 02:35:44;;;;;;;30.25;24.67;;;17.70;99.90;;;;;;5000499;28;20453;-86
2023/05/22 02:38:11;;;;;;;25.27;22.45;;;17.70;99.90;;;;;;5013324;28;20036;-86
2023/05/22 02:40:36;;;;;;;30.10;24.13;;;17.70;99.90;;;;;;5001930;28;20045;-86
2023/05/22 02:43:02;;;;;;;29.13;23.70;;;17.70;99.90;;;;;;5015754;28;20208;-86
2023/05/22 02:45:28;;;;;;;29.75;24.27;;;17.70;99.90;;;;;;5018123;28;20460;-86
2023/05/22 02:47:54;;;;;;;27.83;23.10;;;17.60;99.90;;;;;;4987775;28;20397;-86
2023/05/22 02:50:20;;;;;;;29.08;24.13;;;17.70;99.90;;;;;;4987358;28;20124;-85
2023/05/22 02:52:45;;;;;;;30.25;24.92;;;17.60;99.90;;;;;;5001029;28;20086;-85
2023/05/22 02:55:11;;;;;;;29.30;24.58;;;17.60;99.90;;;;;;5017179;28;20383;-87
2023/05/22 02:57:37;;;;;;;34.50;25.88;;;17.60;99.90;;;;;;5001118;28;20049;-86
2023/05/22 03:00:05;;;;;;;30.85;25.02;;;17.60;99.90;;;;;;5013198;28;20604;-85
2023/05/22 03:02:31;;;;;;;35.30;25.40;;;17.60;99.90;;;;;;5003659;28;20037;-86
2023/05/22 03:04:58;;;;;;;28.55;24.63;;;17.60;99.90;;;;;;5000532;28;20060;-86
2023/05/22 03:07:25;;;;;;;29.60;23.38;;;17.50;99.90;;;;;;5010535;28;20048;-85
2023/05/22 03:09:51;;;;;;;31.30;24.38;;;17.50;99.90;;;;;;5025656;28;20508;-85
2023/05/22 03:12:17;;;;;;;31.35;24.23;;;17.50;99.90;;;;;;5001356;28;20037;-85
2023/05/22 03:14:43;;;;;;;32.03;25.05;;;17.50;99.90;;;;;;4986511;28;20096;-85
2023/05/22 03:17:09;;;;;;;32.13;24.55;;;17.50;99.90;;;;;;4988477;28;20056;-87
2023/05/22 03:19:34;;;;;;;32.08;25.70;;;17.50;99.90;;;;;;4996073;28;20433;-86
2023/05/22 03:22:00;;;;;;;31.98;24.52;;;17.50;99.90;;;;;;4997139;28;20038;-86
2023/05/22 03:24:26;;;;;;;31.25;25.17;;;17.50;99.90;;;;;;4999803;28;20432;-86
2023/05/22 03:26:52;;;;;;;28.35;23.23;;;17.50;99.90;;;;;;4999087;28;20124;-85
2023/05/22 03:29:18;;;;;;;31.83;25.50;;;17.50;99.90;;;;;;5016021;28;20132;-87
2023/05/22 03:31:43;;;;;;;32.47;25.65;;;17.50;99.90;;;;;;4976572;28;20080;-86
2023/05/22 03:34:09;;;;;;;34.72;25.88;;;17.50;99.90;;;;;;4992399;28;20053;-85
2023/05/22 03:36:35;;;;;;;33.13;25.77;;;17.50;99.90;;;;;;5015930;28;20103;-85
2023/05/22 03:39:01;;;;;;;34.75;26.58;;;17.50;99.90;;;;;;5002360;28;20041;-85
2023/05/22 03:41:27;;;;;;;33.97;26.40;;;17.50;99.90;;;;;;5002111;28;20033;-86
2023/05/22 03:43:53;;;;;;;32.47;24.63;;;17.50;99.90;;;;;;5013930;28;20052;-85
2023/05/22 03:46:19;;;;;;;32.78;25.98;;;17.40;99.90;;;;;;5016834;28;20048;-86
2023/05/22 03:48:44;;;;;;;30.65;24.92;;;17.50;99.90;;;;;;4989807;28;20490;-86
2023/05/22 03:51:10;;;;;;;32.30;26.27;;;17.50;99.90;;;;;;5000795;28;20045;-85
2023/05/22 03:53:36;;;;;;;36.15;26.25;;;17.50;99.90;;;;;;5000027;28;20328;-86
2023/05/22 03:56:01;;;;;;;31.10;27.13;;;17.50;99.90;;;;;;4984709;28;20037;-86
2023/05/22 03:58:27;;;;;;;32.72;26.40;;;17.50;99.90;;;;;;4987651;28;20081;-84
2023/05/22 04:00:54;;;;;;;34.35;27.05;;;17.50;99.90;;;;;;5035262;28;20041;-86
2023/05/22 04:03:20;;;;;;;36.72;28.10;;;17.40;99.90;;;;;;5010156;28;20103;-87
2023/05/22 04:05:46;;;;;;;34.33;25.33;;;17.40;99.90;;;;;;5001148;28;20041;-85
2023/05/22 04:08:12;;;;;;;31.88;27.20;;;17.40;99.90;;;;;;5000443;28;20041;-86
2023/05/22 04:10:39;;;;;;;30.27;23.88;;;17.50;99.90;;;;;;4999573;28;20037;-85
2023/05/22 04:13:05;;;;;;;31.90;25.95;;;17.40;99.90;;;;;;4984185;28;20041;-85
2023/05/22 04:15:32;;;;;;;31.60;27.23;;;17.40;99.90;;;;;;4993780;28;20044;-85
2023/05/22 04:17:59;;;;;;;33.97;26.95;;;17.40;99.90;;;;;;5000181;28;20044;-86
2023/05/22 04:20:25;;;;;;;34.75;26.88;;;17.40;99.90;;;;;;4993883;28;20033;-84
2023/05/22 04:22:53;;;;;;;33.08;26.90;;;17.40;99.90;;;;;;5031367;28;20436;-87
2023/05/22 04:25:19;;;;;;;38.63;28.00;;;17.30;99.90;;;;;;5012984;28;20036;-86
2023/05/22 04:27:46;;;;;;;32.78;26.13;;;17.30;99.90;;;;;;4995755;28;20043;-86
2023/05/22 04:30:13;;;;;;;35.58;28.17;;;17.30;99.90;;;;;;5004169;28;20340;-86
2023/05/22 04:32:39;;;;;;;32.88;27.40;;;17.30;99.90;;;;;;5035502;28;20574;-86
2023/05/22 04:35:05;;;;;;;35.95;27.15;;;17.30;99.90;;;;;;4999712;28;20062;-86
2023/05/22 04:37:31;;;;;;;35.55;26.83;;;17.30;99.90;;;;;;4985357;28;20037;-86
2023/05/22 04:40:02;;;;;;;33.03;26.42;;;17.30;99.90;;;;;;4983295;28;20402;-86
2023/05/22 04:42:29;;;;;;;34.30;26.48;;;17.30;99.90;;;;;;5033360;28;20037;-86
2023/05/22 04:44:56;;;;;;;33.53;27.27;;;17.30;99.90;;;;;;5033352;28;20075;-85
2023/05/22 04:47:23;;;;;;;37.50;28.40;;;17.30;99.90;;;;;;5022538;28;20119;-86
2023/05/22 04:49:48;;;;;;;35.90;27.73;;;17.30;99.90;;;;;;5032684;28;20411;-85
2023/05/22 04:52:14;;;;;;;34.20;27.92;;;17.40;99.90;;;;;;5032156;28;20033;-85
2023/05/22 04:54:42;;;;;;;35.42;28.58;;;17.40;99.90;;;;;;5015408;28;20048;-86
2023/05/22 04:57:07;;;;;;;36.22;28.80;;;17.30;99.90;;;;;;5001269;28;20048;-85
2023/05/22 04:59:36;;;;;;;35.78;28.70;;;17.30;99.90;;;;;;5017570;28;20033;-83
2023/05/22 05:02:04;;;;;;;37.05;29.30;;;17.30;99.90;;;;;;5033707;28;20052;-83
2023/05/22 05:04:29;;;;;;;38.25;29.35;;;17.30;99.90;;;;;;5018150;28;20041;-82
2023/05/22 05:06:56;;;;;;;38.58;28.92;;;17.20;99.90;;;;;;5002483;28;20045;-82
2023/05/22 05:09:23;;;;;;;40.97;29.60;;;17.20;99.90;;;;;;5034862;28;20397;-84
2023/05/22 05:11:49;;;;;;;40.15;30.90;;;17.20;99.90;;;;;;5002555;28;20048;-85
2023/05/22 05:14:16;;;;;;;35.80;29.40;;;17.20;99.90;;;;;;5017563;28;20041;-83
2023/05/22 05:16:42;;;;;;;39.67;30.35;;;17.20;99.90;;;;;;5018816;28;20039;-85
2023/05/22 05:19:07;;;;;;;36.85;29.52;;;17.20;99.90;;;;;;5014005;28;20037;-86
2023/05/22 05:21:33;;;;;;;35.33;26.92;;;17.20;99.90;;;;;;5031362;28;20041;-85
2023/05/22 05:23:59;;;;;;;38.05;30.98;;;17.20;99.90;;;;;;4993276;28;20046;-85
2023/05/22 05:26:26;;;;;;;38.03;31.48;;;17.20;99.90;;;;;;5029555;28;20104;-84
2023/05/22 05:28:52;;;;;;;40.25;30.45;;;17.20;99.90;;;;;;5042398;28;20053;-82
2023/05/22 05:31:19;;;;;;;41.05;31.05;;;17.10;99.90;;;;;;5029443;28;20116;-84
2023/05/22 05:33:45;;;;;;;42.50;32.83;;;17.20;99.90;;;;;;5002506;28;20052;-84
2023/05/22 05:36:11;;;;;;;38.53;30.42;;;17.10;99.90;;;;;;5022036;28;20048;-84
2023/05/22 05:38:37;;;;;;;45.15;33.72;;;17.10;99.90;;;;;;5029772;28;20041;-83
2023/05/22 05:41:03;;;;;;;39.08;31.80;;;17.10;99.90;;;;;;5006240;28;20044;-82
2023/05/22 05:43:29;;;;;;;42.08;31.38;;;17.10;99.90;;;;;;5034796;28;20073;-83
2023/05/22 05:45:55;;;;;;;42.22;33.58;;;17.10;99.90;;;;;;5019111;28;20045;-83
2023/05/22 05:48:21;;;;;;;40.55;30.30;;;17.00;99.90;;;;;;5003827;28;20084;-82
2023/05/22 05:50:47;;;;;;;41.05;32.15;;;17.00;99.90;;;;;;5031510;28;20045;-83
2023/05/22 05:53:13;;;;;;;47.03;33.20;;;17.10;99.90;;;;;;5040226;28;20045;-83
2023/05/22 05:55:38;;;;;;;41.97;30.90;;;17.10;99.90;;;;;;5019673;28;20112;-82
2023/05/22 05:58:04;;;;;;;40.88;29.92;;;17.20;99.90;;;;;;4995964;28;20056;-82
2023/05/22 06:00:30;;;;;;;41.15;30.23;;;17.20;99.90;;;;;;4995853;28;20041;-83
2023/05/22 06:02:56;;;;;;;42.03;31.98;;;17.20;99.90;;;;;;5041806;28;20041;-83
2023/05/22 06:05:21;;;;;;;39.35;31.42;;;17.30;99.90;;;;;;5035364;28;20041;-82
2023/05/22 06:07:48;;;;;;;42.08;31.38;;;17.30;99.90;;;;;;5012677;28;20124;-82
2023/05/22 06:10:14;;;;;;;40.60;30.73;;;17.30;99.90;;;;;;5030607;28;20439;-82
2023/05/22 06:12:40;;;;;;;43.42;30.05;;;17.30;99.90;;;;;;5031701;28;20049;-82
2023/05/22 06:15:07;;;;;;;37.28;29.67;;;17.40;99.90;;;;;;5018544;28;20128;-83
2023/05/22 06:17:34;;;;;;;37.72;30.00;;;17.50;99.90;;;;;;5001585;28;20045;-85
2023/05/22 06:20:00;;;;;;;36.58;29.60;;;17.50;99.90;;;;;;5033827;28;20041;-85
2023/05/22 06:22:25;;;;;;;36.35;29.73;;;17.60;99.90;;;;;;5034157;28;20394;-84
2023/05/22 06:24:54;;;;;;;37.55;26.13;;;17.60;99.90;;;;;;5035119;28;20042;-85
2023/05/22 06:27:23;;;;;;;42.53;31.23;;;17.60;99.90;;;;;;5048208;28;20077;-85
2023/05/22 06:29:50;;;;;;;34.42;28.00;;;17.70;99.90;;;;;;4986334;28;20041;-85
2023/05/22 06:32:16;;;;;;;42.22;30.58;;;17.80;99.90;;;;;;5035168;28;20557;-84
2023/05/22 06:34:43;;;;;;;36.30;30.90;;;17.80;99.90;;;;;;4988512;28;20061;-84
2023/05/22 06:37:10;;;;;;;38.08;29.65;;;17.80;99.90;;;;;;5017350;28;20041;-84
2023/05/22 06:39:36;;;;;;;33.17;29.00;;;17.90;99.90;;;;;;5006794;28;20405;-83
2023/05/22 06:42:02;;;;;;;36.47;29.98;;;17.90;99.90;;;;;;5056164;28;20049;-84
2023/05/22 06:44:28;;;;;;;34.83;28.77;;;18.00;99.90;;;;;;5047603;28;20037;-84
2023/05/22 06:46:54;;;;;;;34.60;28.42;;;18.10;99.90;;;;;;5021421;28;20051;-84
2023/05/22 06:49:19;;;;;;;34.90;27.48;;;18.10;99.90;;;;;;5037964;28;20044;-85
2023/05/22 06:51:45;;;;;;;35.50;27.23;;;18.10;99.90;;;;;;5014267;28;20058;-84
2023/05/22 06:54:12;;;;;;;32.47;27.52;;;18.00;99.90;;;;;;5037465;28;20045;-85
2023/05/22 06:56:41;;;;;;;35.35;27.50;;;18.00;99.90;;;;;;5004681;28;20033;-85
2023/05/22 06:59:09;;;;;;;32.03;26.50;;;18.00;99.90;;;;;;5036639;28;20032;-85
2023/05/22 07:01:34;;;;;;;30.00;26.23;;;18.00;99.90;;;;;;5022338;28;20037;-85
2023/05/22 07:04:01;;;;;;;31.65;25.63;;;18.00;99.90;;;;;;5005126;28;20515;-86
2023/05/22 07:06:27;;;;;;;31.23;24.25;;;18.00;99.90;;;;;;5021652;28;20518;-85
2023/05/22 07:08:53;;;;;;;31.60;24.00;;;17.90;99.90;;;;;;5037939;28;20048;-85
2023/05/22 07:11:18;;;;;;;30.48;23.13;;;18.00;99.90;;;;;;5003346;28;20044;-85
2023/05/22 07:13:44;;;;;;;30.70;23.95;;;17.90;99.90;;;;;;5020226;28;20045;-85
2023/05/22 07:16:10;;;;;;;35.95;24.35;;;17.90;99.90;;;;;;5001168;28;20040;-86
2023/05/22 07:18:35;;;;;;;27.83;21.50;;;17.90;99.90;;;;;;4976390;28;20079;-85
2023/05/22 07:21:01;;;;;;;26.90;21.75;;;17.90;99.90;;;;;;5018634;28;20033;-85
2023/05/22 07:23:27;;;;;;;30.50;21.95;;;17.90;99.90;;;;;;4984657;28;20054;-86
2023/05/22 07:25:53;;;;;;;25.45;18.88;;;17.90;99.90;;;;;;5020584;28;20033;-85
2023/05/22 07:28:19;;;;;;;24.95;18.90;;;17.90;99.90;;;;;;4999679;28;20045;-85
2023/05/22 07:30:44;;;;;;;27.80;18.65;;;18.00;99.90;;;;;;5037076;28;20409;-85
2023/05/22 07:33:10;;;;;;;29.17;18.77;;;18.00;99.90;;;;;;5024441;28;20152;-85
2023/05/22 07:35:36;;;;;;;23.42;18.00;;;18.00;99.90;;;;;;5004012;28;20057;-84
2023/05/22 07:38:02;;;;;;;28.60;18.75;;;18.10;99.90;;;;;;5018808;28;20040;-85
2023/05/22 07:40:28;;;;;;;27.45;16.33;;;18.10;99.90;;;;;;5000363;28;20084;-85
2023/05/22 07:42:54;;;;;;;25.73;16.35;;;18.20;99.90;;;;;;5036531;28;20151;-86
2023/05/22 07:45:20;;;;;;;24.15;16.05;;;18.20;99.90;;;;;;5005908;28;20048;-84
2023/05/22 07:47:46;;;;;;;22.00;16.15;;;18.20;99.90;;;;;;5011529;28;20045;-84
2023/05/22 07:50:12;;;;;;;22.65;15.07;;;18.20;99.90;;;;;;5035130;28;20041;-85
2023/05/22 07:52:37;;;;;;;22.63;14.68;;;18.30;99.90;;;;;;4991612;28;20024;-86
2023/05/22 07:55:04;;;;;;;19.00;14.40;;;18.30;99.90;;;;;;5037680;28;20037;-85
2023/05/22 07:57:29;;;;;;;21.42;15.27;;;18.40;99.90;;;;;;4985807;28;20063;-85
2023/05/22 07:59:55;;;;;;;20.73;15.43;;;18.40;99.90;;;;;;5017746;28;20497;-85
2023/05/22 08:02:21;;;;;;;23.17;16.08;;;18.40;99.90;;;;;;5015578;28;20044;-86
2023/05/22 08:04:49;;;;;;;20.50;15.23;;;18.40;99.90;;;;;;5012426;28;20080;-85
2023/05/22 08:07:14;;;;;;;21.17;15.30;;;18.40;99.90;;;;;;5014768;28;20388;-84
2023/05/22 08:09:40;;;;;;;25.48;15.07;;;18.50;99.90;;;;;;5015195;28;20045;-86
2023/05/22 08:12:06;;;;;;;20.15;14.40;;;18.50;99.90;;;;;;4994587;28;20112;-84
2023/05/22 08:14:32;;;;;;;24.48;15.35;;;18.50;99.90;;;;;;5014293;28;20891;-85
2023/05/22 08:16:59;;;;;;;22.92;14.75;;;18.50;99.90;;;;;;5033591;28;20052;-85
2023/05/22 08:19:25;;;;;;;19.95;13.43;;;18.50;99.90;;;;;;4985230;28;20103;-85
2023/05/22 08:21:56;;;;;;;23.20;15.15;;;18.60;99.90;;;;;;4992985;28;20028;-84
2023/05/22 08:24:29;;;;;;;26.23;15.57;;;18.60;99.90;;;;;;5032818;28;20045;-84
2023/05/22 08:26:57;;;;;;;21.90;13.73;;;18.70;99.90;;;;;;5019601;28;20052;-85
2023/05/22 08:29:23;;;;;;;21.50;14.05;;;18.80;99.90;;;;;;5032401;28;20037;-85
2023/05/22 08:31:48;;;;;;;25.90;13.55;;;18.80;99.90;;;;;;5017858;28;20554;-86
2023/05/22 08:34:14;;;;;;;20.10;13.50;;;18.80;99.90;;;;;;5017093;28;20546;-84
2023/05/22 08:36:40;;;;;;;20.33;12.38;;;18.80;99.90;;;;;;5034090;28;20767;-83
2023/05/22 08:39:08;;;;;;;18.63;12.93;;;18.90;99.90;;;;;;5018159;28;20087;-83
2023/05/22 08:41:34;;;;;;;20.55;12.88;;;18.90;99.90;;;;;;5016662;28;20040;-83
2023/05/22 08:44:00;;;;;;;25.13;12.40;;;18.90;99.90;;;;;;5016253;28;20044;-85
2023/05/22 08:46:27;;;;;;;19.15;11.90;;;18.90;99.90;;;;;;5016134;28;20105;-85
2023/05/22 08:48:57;;;;;;;19.95;12.63;;;18.90;99.90;;;;;;5014340;28;20482;-85
2023/05/22 08:51:28;;;;;;;19.15;12.15;;;19.00;99.90;;;;;;5033187;28;20514;-84
2023/05/22 08:53:55;;;;;;;22.05;12.25;;;19.00;99.90;;;;;;5033520;28;20070;-84
2023/05/22 08:56:21;;;;;;;19.88;11.57;;;19.10;99.90;;;;;;5033578;28;20043;-84
2023/05/22 08:58:50;;;;;;;19.98;12.07;;;19.20;99.90;;;;;;5008971;28;20032;-84
2023/05/22 09:01:16;;;;;;;19.55;11.23;;;19.30;99.90;;;;;;5016384;28;20129;-84
2023/05/22 09:03:42;;;;;;;23.00;11.93;;;19.30;99.90;;;;;;5002034;28;20048;-85
2023/05/22 09:06:09;;;;;;;14.38;10.98;;;19.30;99.90;;;;;;5019080;28;20045;-86
2023/05/22 09:08:36;;;;;;;20.17;11.52;;;19.30;99.90;;;;;;4996672;28;20037;-84
2023/05/22 09:11:02;;;;;;;18.73;11.63;;;19.50;99.90;;;;;;5006744;28;20041;-85
2023/05/22 09:13:31;;;;;;;18.13;12.07;;;19.60;99.90;;;;;;5001288;28;20534;-84
2023/05/22 09:16:08;;;;;;;17.50;11.18;;;19.80;99.90;;;;;;5012846;28;20045;-84
2023/05/22 09:18:36;;;;;;;18.20;11.52;;;20.00;99.90;;;;;;5032848;28;20037;-85
2023/05/22 09:21:02;;;;;;;17.15;11.68;;;20.30;99.90;;;;;;5016598;28;20037;-83
2023/05/22 09:23:29;;;;;;;18.70;11.73;;;20.40;99.90;;;;;;5017790;28;20075;-83
2023/05/22 09:25:56;;;;;;;16.08;11.32;;;20.60;99.90;;;;;;5012857;28;20542;-83
2023/05/22 09:28:22;;;;;;;15.48;11.30;;;20.70;99.90;;;;;;4984273;28;20094;-84
2023/05/22 09:30:53;;;;;;;15.80;11.70;;;20.90;99.90;;;;;;5000457;28;20037;-84
2023/05/22 09:33:19;;;;;;;18.63;12.10;;;21.00;99.90;;;;;;5015602;28;20507;-85
2023/05/22 09:35:46;;;;;;;18.15;11.07;;;21.10;99.90;;;;;;5000832;28;20056;-85
2023/05/22 09:38:12;;;;;;;22.65;10.48;;;21.20;99.90;;;;;;5016472;28;20508;-85
2023/05/22 09:40:39;;;;;;;16.95;11.70;;;21.40;99.90;;;;;;5010944;28;20142;-86
2023/05/22 09:43:11;;;;;;;18.15;12.32;;;21.40;99.90;;;;;;5006972;28;20044;-84
2023/05/22 09:45:38;;;;;;;19.50;12.10;;;21.40;99.90;;;;;;5030680;28;20044;-85
2023/05/22 09:48:05;;;;;;;20.00;12.52;;;21.40;99.90;;;;;;5017677;28;20048;-85
2023/05/22 09:50:31;;;;;;;18.67;11.75;;;21.40;99.90;;;;;;5014453;28;20049;-86
2023/05/22 09:53:01;;;;;;;22.70;13.05;;;21.40;99.90;;;;;;5029003;28;20048;-84
2023/05/22 09:55:28;;;;;;;17.10;12.77;;;21.40;99.90;;;;;;5014019;28;20048;-85
2023/05/22 09:57:54;;;;;;;17.58;11.85;;;21.40;99.90;;;;;;5014800;28;20087;-85
2023/05/22 10:00:22;;;;;;;17.50;12.45;;;21.40;99.90;;;;;;4998409;28;20037;-86
2023/05/22 10:03:04;;;;;;;19.45;13.07;;;21.40;99.90;;;;;;5032513;28;20037;-85
2023/05/22 10:05:31;;;;;;;16.05;13.10;;;21.50;99.90;;;;;;5015550;28;20059;-86
2023/05/22 10:08:09;;;;;;;20.75;13.25;;;21.50;99.90;;;;;;4998937;28;20048;-84
2023/05/22 10:10:35;;;;;;;19.65;13.10;;;21.50;99.90;;;;;;5016415;28;20060;-86
2023/05/22 10:13:07;;;;;;;21.30;12.93;;;21.50;99.90;;;;;;5001236;28;20034;-86
2023/05/22 10:15:37;;;;;;;22.80;13.73;;;21.60;99.90;;;;;;5032318;28;20061;-86
2023/05/22 10:18:03;;;;;;;19.33;13.73;;;21.70;99.90;;;;;;5039024;28;20051;-85
2023/05/22 10:20:29;;;;;;;18.65;13.65;;;21.70;99.90;;;;;;5048222;28;20412;-85
2023/05/22 10:22:56;;;;;;;20.10;13.68;;;21.80;99.90;;;;;;5000605;28;20071;-86
2023/05/22 10:25:22;;;;;;;21.02;13.90;;;21.70;99.90;;;;;;5034021;28;20029;-86
2023/05/22 10:27:50;;;;;;;22.83;14.30;;;21.70;99.90;;;;;;4998388;28;20043;-85
2023/05/22 10:30:35;;;;;;;20.95;14.18;;;21.60;99.90;;;;;;5017125;28;20033;-85
2023/05/22 10:33:19;;;;;;;23.88;14.95;;;21.60;99.90;;;;;;5012727;28;20185;-85
2023/05/22 10:36:05;;;;;;;18.42;13.52;;;21.50;99.90;;;;;;5032754;28;20049;-87
2023/05/22 10:39:17;;;;;;;20.52;13.00;;;21.50;99.90;;;;;;5027607;28;20104;-84
2023/05/22 10:41:43;;;;;;;18.23;13.45;;;21.60;99.90;;;;;;5033400;28;20481;-87
2023/05/22 10:44:09;;;;;;;18.35;13.38;;;21.70;99.90;;;;;;5016514;28;20139;-88
2023/05/22 10:46:35;;;;;;;22.95;14.85;;;21.80;99.90;;;;;;4996826;28;20092;-87
2023/05/22 10:49:01;;;;;;;23.27;13.60;;;21.80;99.90;;;;;;5032740;28;20064;-86
2023/05/22 10:51:27;;;;;;;19.33;12.82;;;21.90;99.90;;;;;;5000468;28;20064;-87
2023/05/22 10:54:01;;;;;;;21.92;15.63;;;22.00;99.90;;;;;;5012562;28;20048;-88
2023/05/22 10:56:36;;;;;;;17.25;14.23;;;22.00;99.90;;;;;;5016893;28;20024;-86
2023/05/22 10:59:04;;;;;;;23.23;15.15;;;22.10;99.90;;;;;;5034858;28;20167;-85
2023/05/22 11:01:34;;;;;;;20.63;15.10;;;22.20;99.90;;;;;;5015026;28;20481;-85
2023/05/22 11:04:01;;;;;;;19.23;13.85;;;22.30;99.90;;;;;;5004616;28;20480;-88
2023/05/22 11:06:47;;;;;;;18.77;15.45;;;22.40;99.90;;;;;;5036637;28;20045;-86
2023/05/22 11:09:25;;;;;;;21.25;14.75;;;22.40;99.90;;;;;;5036147;28;20048;-86
2023/05/22 11:12:15;;;;;;;22.30;15.38;;;22.50;99.90;;;;;;5017890;28;20094;-85
2023/05/22 11:14:41;;;;;;;20.10;15.00;;;22.60;99.90;;;;;;5018083;28;20501;-85
2023/05/22 11:17:07;;;;;;;18.45;14.13;;;22.70;99.90;;;;;;5014453;28;20055;-84
2023/05/22 11:19:33;;;;;;;16.90;14.02;;;22.80;99.90;;;;;;5015567;28;20073;-85
2023/05/22 11:22:03;;;;;;;23.25;15.68;;;22.90;99.90;;;;;;5018217;28;20033;-85
2023/05/22 11:24:33;;;;;;;19.45;15.20;;;22.90;99.90;;;;;;5000494;28;20041;-85
2023/05/22 11:27:06;;;;;;;18.17;13.57;;;23.00;99.90;;;;;;5001012;28;20051;-85
2023/05/22 11:29:33;;;;;;;17.90;14.13;;;23.10;99.90;;;;;;5022375;28;20482;-85
2023/05/22 11:32:00;;;;;;;22.50;14.30;;;23.10;99.90;;;;;;5023767;28;20049;-85
2023/05/22 11:34:26;;;;;;;21.50;15.27;;;23.10;99.90;;;;;;5014542;28;20045;-86
2023/05/22 11:36:58;;;;;;;15.73;12.90;;;23.10;99.90;;;;;;4986492;28;20458;-86
2023/05/22 11:39:24;;;;;;;20.10;15.63;;;23.20;99.90;;;;;;5031674;28;20038;-86
2023/05/22 11:41:50;;;;;;;19.40;14.68;;;23.30;99.90;;;;;;5032821;28;20517;-86
2023/05/22 11:44:15;;;;;;;21.38;16.23;;;23.50;99.90;;;;;;4984101;28;20112;-86
2023/05/22 11:46:41;;;;;;;22.27;15.93;;;23.60;99.90;;;;;;4999348;28;20590;-86
2023/05/22 11:49:12;;;;;;;21.33;15.63;;;23.60;99.90;;;;;;4999780;28;20128;-86
2023/05/22 11:51:39;;;;;;;22.77;17.58;;;23.70;99.90;;;;;;5015863;28;20176;-85
2023/05/22 11:54:06;;;;;;;21.60;15.07;;;23.70;99.90;;;;;;5032428;28;20049;-85
2023/05/22 11:56:32;;;;;;;21.08;17.27;;;23.80;99.90;;;;;;4999794;28;20037;-85
2023/05/22 11:58:58;;;;;;;19.77;14.90;;;23.80;99.90;;;;;;4999871;28;20034;-85
2023/05/22 12:01:24;;;;;;;21.92;16.52;;;23.90;99.90;;;;;;4989773;28;20037;-86
2023/05/22 12:03:49;;;;;;;20.83;14.57;;;23.90;99.90;;;;;;5020242;28;20069;-86
2023/05/22 12:06:16;;;;;;;18.08;13.00;;;23.90;99.90;;;;;;5014727;28;20145;-84
2023/05/22 12:08:43;;;;;;;16.00;13.25;;;24.00;99.90;;;;;;5016031;28;20045;-85
2023/05/22 12:11:10;;;;;;;18.88;13.75;;;24.00;99.90;;;;;;5032430;28;20045;-85
2023/05/22 12:13:36;;;;;;;14.82;12.13;;;24.00;99.90;;;;;;5030959;28;20077;-86
2023/05/22 12:16:22;;;;;;;17.85;13.75;;;24.10;99.90;;;;;;4999487;28;20080;-84
2023/05/22 12:18:51;;;;;;;;;;;24.20;99.90;;;;;;5006141;28;20037;-85
2023/05/22 12:21:19;;;;;;;14.70;12.30;;;24.40;99.90;;;;;;5018356;28;19942;-85
2023/05/22 12:23:49;;;;;;;18.70;13.13;;;24.50;99.90;;;;;;5011099;28;20496;-86
2023/05/22 12:26:16;;;;;;;17.10;12.95;;;24.70;99.90;;;;;;5031468;28;20041;-84
2023/05/22 12:28:42;;;;;;;17.52;13.57;;;25.00;99.90;;;;;;5018479;28;20595;-84
2023/05/22 12:31:07;;;;;;;14.13;12.35;;;25.20;99.90;;;;;;5001464;28;20041;-84